Fort Ritner, Indiana
Current Conditions -  °F | °C
As of 4:19 PM on Friday 31 Oct 2014 (Local Time) from KBMG Reporting Station
Light Rain Light Rain  
Wind Chill: 31°   Ceiling: 4200
Heat Index: 38°   Visibility: 10mi
Dew Point: 33°   Wind: 9mph
Humidity: 83%   Direction: 300°WNW
Pressure: 30.04"   Gusts: 21mph
Location:  38.77°N, 86.28°W
Report Text: KBMG 312019Z 30008G18KT 10SM -RA SCT023 SCT031 OVC042 03/01 A3004 RMK AO2 RAB01 P0001 T00330006
Loading
Personal Weather Stations






























Interactive Weather Map
Tropical Storm Tracking
New forecast layout! Learn more

10-Day Weather Forecast

Advertisements
Track Severe Weather on mobile